createdAt,value
2022-12-25T00:03:19.289Z,9.46
2022-12-25T00:08:41.219Z,9.50
2022-12-25T00:14:03.006Z,9.54
2022-12-25T00:19:24.716Z,9.54
2022-12-25T00:24:49.992Z,9.53
2022-12-25T00:30:11.953Z,9.39
2022-12-25T00:35:33.644Z,9.43
2022-12-25T00:40:55.415Z,9.55
2022-12-25T00:46:17.241Z,9.41
2022-12-25T00:51:39.442Z,9.36
2022-12-25T00:57:01.677Z,9.35
2022-12-25T01:02:23.529Z,9.40
2022-12-25T01:07:45.367Z,9.36
2022-12-25T01:13:08.145Z,9.48
2022-12-25T01:18:29.887Z,9.55
2022-12-25T01:23:53.060Z,9.59
2022-12-25T01:29:14.753Z,9.61
2022-12-25T01:34:36.709Z,9.60
2022-12-25T01:39:58.475Z,9.61
2022-12-25T01:45:40.484Z,9.60
2022-12-25T01:51:10.632Z,9.57
2022-12-25T01:56:34.586Z,9.56
2022-12-25T02:01:57.508Z,9.44
2022-12-25T02:07:21.583Z,9.44
2022-12-25T02:12:45.103Z,9.48
2022-12-25T02:18:35.928Z,9.58
2022-12-25T02:24:28.039Z,9.44
2022-12-25T02:30:07.218Z,9.42
2022-12-25T02:35:31.407Z,9.47
2022-12-25T02:40:57.897Z,9.44
2022-12-25T02:46:42.436Z,9.53
2022-12-25T02:52:32.129Z,9.53
2022-12-25T02:58:16.254Z,9.48
2022-12-25T03:03:59.430Z,9.59
2022-12-25T03:09:47.107Z,9.50
2022-12-25T03:15:28.989Z,9.41
2022-12-25T03:21:11.762Z,9.51
2022-12-25T03:26:52.529Z,9.52
2022-12-25T03:32:32.808Z,9.46
2022-12-25T03:38:32.991Z,9.40
2022-12-25T03:44:20.717Z,9.40
2022-12-25T03:50:26.880Z,9.46
2022-12-25T03:56:08.766Z,9.38
2022-12-25T04:01:49.336Z,9.37
2022-12-25T04:07:30.122Z,9.38
2022-12-25T04:13:11.025Z,9.29
2022-12-25T04:19:11.390Z,9.29
2022-12-25T04:24:51.614Z,9.28
2022-12-25T04:30:31.824Z,9.38
2022-12-25T04:36:12.249Z,9.26
2022-12-25T04:41:34.001Z,9.31
2022-12-25T04:46:55.733Z,9.20
2022-12-25T04:52:17.628Z,9.20
2022-12-25T04:57:39.458Z,9.28
2022-12-25T05:03:01.330Z,9.20
2022-12-25T05:08:23.401Z,9.10
2022-12-25T05:13:45.133Z,9.27
2022-12-25T05:19:07.193Z,9.34
2022-12-25T05:24:29.010Z,9.32
2022-12-25T05:29:50.736Z,9.17
2022-12-25T05:35:12.507Z,9.29
2022-12-25T05:40:34.959Z,9.23
2022-12-25T05:45:56.889Z,9.16
2022-12-25T05:51:18.668Z,9.26
2022-12-25T05:56:41.454Z,9.35
2022-12-25T06:02:03.280Z,9.37
2022-12-25T06:07:25.117Z,9.34
2022-12-25T06:12:46.862Z,9.31
2022-12-25T06:18:09.047Z,9.31
2022-12-25T06:23:30.882Z,9.42
2022-12-25T06:28:53.180Z,9.38
2022-12-25T06:34:16.529Z,9.41
2022-12-25T06:39:38.357Z,9.42
2022-12-25T06:45:00.110Z,9.37
2022-12-25T06:50:21.901Z,9.29
2022-12-25T06:55:43.643Z,9.29
2022-12-25T07:01:15.459Z,9.22
2022-12-25T07:06:37.530Z,9.28
2022-12-25T07:12:08.370Z,9.27
2022-12-25T07:17:30.381Z,9.27
2022-12-25T07:22:52.110Z,9.35
2022-12-25T07:28:13.869Z,9.31
2022-12-25T07:33:36.153Z,9.42
2022-12-25T07:38:57.985Z,9.52
2022-12-25T07:44:19.723Z,9.55
2022-12-25T07:49:41.882Z,9.64
2022-12-25T07:55:03.733Z,9.59
2022-12-25T08:00:29.633Z,9.46
2022-12-25T08:05:51.436Z,9.54
2022-12-25T08:11:13.396Z,9.48
2022-12-25T08:16:35.561Z,9.43
2022-12-25T08:21:57.451Z,9.36
2022-12-25T08:27:19.170Z,9.41
2022-12-25T08:32:41.734Z,9.50
2022-12-25T08:38:03.477Z,9.52
2022-12-25T08:43:25.215Z,9.42
2022-12-25T08:48:48.312Z,9.40
2022-12-25T08:54:10.635Z,9.42
2022-12-25T08:59:32.430Z,9.34
2022-12-25T09:04:54.176Z,9.36
2022-12-25T09:10:16.173Z,9.48
2022-12-25T09:15:39.126Z,9.46
2022-12-25T09:21:02.886Z,9.45
2022-12-25T09:26:24.803Z,9.38
2022-12-25T09:31:46.608Z,9.41
2022-12-25T09:37:08.457Z,9.41
2022-12-25T09:42:32.372Z,9.52
2022-12-25T09:47:57.429Z,9.52
2022-12-25T09:53:23.129Z,9.50
2022-12-25T09:58:45.163Z,9.54
2022-12-25T10:04:33.661Z,9.63
2022-12-25T10:10:17.661Z,9.71
2022-12-25T10:15:59.219Z,9.80
2022-12-25T10:21:23.381Z,9.85
2022-12-25T10:26:45.378Z,9.95
2022-12-25T10:32:10.212Z,10.10
2022-12-25T10:37:32.017Z,10.33
2022-12-25T10:43:12.492Z,10.49
2022-12-25T10:48:34.429Z,10.64
2022-12-25T10:53:56.957Z,10.72
2022-12-25T10:59:18.713Z,10.78
2022-12-25T11:04:40.838Z,10.77
2022-12-25T11:10:20.069Z,10.75
2022-12-25T11:15:48.271Z,10.84
2022-12-25T11:21:25.772Z,10.90
2022-12-25T11:26:52.859Z,10.97
2022-12-25T11:32:27.896Z,11.07
2022-12-25T11:37:52.123Z,11.20
2022-12-25T11:43:25.010Z,11.37
2022-12-25T11:48:56.157Z,11.46
2022-12-25T11:54:24.927Z,11.54
2022-12-25T12:00:03.967Z,11.67
2022-12-25T12:05:31.801Z,11.74
2022-12-25T12:10:56.634Z,11.81
2022-12-25T12:16:18.646Z,11.86
2022-12-25T12:21:44.199Z,11.88
2022-12-25T12:27:13.705Z,11.94
2022-12-25T12:32:40.533Z,11.98
2022-12-25T12:38:04.053Z,11.99
2022-12-25T12:43:34.947Z,11.99
2022-12-25T12:49:22.980Z,12.06
2022-12-25T12:54:59.413Z,12.11
2022-12-25T13:00:21.260Z,12.14
2022-12-25T13:05:54.229Z,12.15
2022-12-25T13:11:38.794Z,12.22
2022-12-25T13:17:00.849Z,12.31
2022-12-25T13:22:26.088Z,12.32
2022-12-25T13:27:58.388Z,12.34
2022-12-25T13:33:20.588Z,12.32
2022-12-25T13:38:47.822Z,12.31
2022-12-25T13:44:26.112Z,12.34
2022-12-25T13:49:49.005Z,12.38
2022-12-25T13:55:20.696Z,12.38
2022-12-25T14:00:48.795Z,12.39
2022-12-25T14:06:28.825Z,12.41
2022-12-25T14:11:52.614Z,12.40
2022-12-25T14:17:14.446Z,12.41
2022-12-25T14:22:38.414Z,12.43
2022-12-25T14:28:08.452Z,12.51
2022-12-25T14:33:37.260Z,12.52
2022-12-25T14:39:01.582Z,12.50
2022-12-25T14:44:40.917Z,12.47
2022-12-25T14:50:13.768Z,12.44
2022-12-25T14:55:35.622Z,12.41
2022-12-25T15:01:00.417Z,12.38
2022-12-25T15:06:24.831Z,12.33
2022-12-25T15:11:51.066Z,12.33
2022-12-25T15:17:27.921Z,12.27
2022-12-25T15:23:18.355Z,12.28
2022-12-25T15:28:31.551Z,12.24
2022-12-25T15:33:54.544Z,12.20
2022-12-25T15:39:16.255Z,12.21
2022-12-25T15:44:39.057Z,12.23
2022-12-25T15:50:00.911Z,12.20
2022-12-25T15:55:23.423Z,12.23
2022-12-25T16:00:45.323Z,12.20
2022-12-25T16:06:14.264Z,12.16
2022-12-25T16:11:36.223Z,12.20
2022-12-25T16:16:58.008Z,12.27
2022-12-25T16:22:27.475Z,12.25
2022-12-25T16:27:49.273Z,12.21
2022-12-25T16:33:11.903Z,12.15
2022-12-25T16:38:34.037Z,12.12
2022-12-25T16:43:55.802Z,12.12
2022-12-25T16:49:17.596Z,12.10
2022-12-25T16:54:39.353Z,12.06
2022-12-25T17:00:01.216Z,12.06
2022-12-25T17:05:24.061Z,12.08
2022-12-25T17:10:45.884Z,12.04
2022-12-25T17:16:16.494Z,11.99
2022-12-25T17:21:38.380Z,11.89
2022-12-25T17:27:00.323Z,11.92
2022-12-25T17:32:22.401Z,11.90
2022-12-25T17:37:44.244Z,11.79
2022-12-25T17:43:06.078Z,11.71
2022-12-25T17:48:28.550Z,11.72
2022-12-25T17:53:53.163Z,11.72
2022-12-25T17:59:18.643Z,11.73
2022-12-25T18:04:40.847Z,11.75
2022-12-25T18:10:02.805Z,11.73
2022-12-25T18:15:24.606Z,11.79
2022-12-25T18:20:46.719Z,11.69
2022-12-25T18:26:11.904Z,11.65
2022-12-25T18:31:33.786Z,11.59
2022-12-25T18:37:03.257Z,11.56
2022-12-25T18:42:39.883Z,11.55
2022-12-25T18:48:06.160Z,11.48
2022-12-25T18:53:29.193Z,11.41
2022-12-25T18:58:50.945Z,11.34
2022-12-25T19:04:14.683Z,11.32
2022-12-25T19:09:36.972Z,11.28
2022-12-25T19:14:58.855Z,11.29
2022-12-25T19:20:20.708Z,11.24
2022-12-25T19:25:42.493Z,11.33
2022-12-25T19:31:07.439Z,11.37
2022-12-25T19:36:29.702Z,11.38
2022-12-25T19:41:51.670Z,11.43
2022-12-25T19:47:13.583Z,11.45
2022-12-25T19:52:35.409Z,11.45
2022-12-25T19:57:59.071Z,11.44
2022-12-25T20:03:20.918Z,11.39
2022-12-25T20:08:42.695Z,11.42
2022-12-25T20:14:05.913Z,11.43
2022-12-25T20:19:27.613Z,11.34
2022-12-25T20:24:49.467Z,11.38
2022-12-25T20:30:11.971Z,11.40
2022-12-25T20:35:33.775Z,11.33
2022-12-25T20:41:30.033Z,11.26
2022-12-25T20:46:45.957Z,11.30
2022-12-25T20:52:07.717Z,11.36
2022-12-25T20:57:29.476Z,11.42
2022-12-25T21:02:54.225Z,11.39
2022-12-25T21:08:17.731Z,11.52
2022-12-25T21:13:42.013Z,11.48
2022-12-25T21:19:03.769Z,11.44
2022-12-25T21:24:25.551Z,11.45
2022-12-25T21:29:47.313Z,11.54
2022-12-25T21:35:09.602Z,11.55
2022-12-25T21:40:34.487Z,11.51
2022-12-25T21:45:56.264Z,11.45
2022-12-25T21:51:42.278Z,11.47
2022-12-25T21:57:04.076Z,11.48
2022-12-25T22:02:26.198Z,11.44
2022-12-25T22:07:49.827Z,11.39
2022-12-25T22:13:30.235Z,11.38
2022-12-25T22:19:10.756Z,11.48
2022-12-25T22:24:32.555Z,11.66
2022-12-25T22:29:54.290Z,11.67
2022-12-25T22:35:16.689Z,11.70
2022-12-25T22:40:38.445Z,11.66
2022-12-25T22:46:03.453Z,11.66
2022-12-25T22:51:25.272Z,11.68
2022-12-25T22:56:49.856Z,11.65
2022-12-25T23:02:11.850Z,11.58
2022-12-25T23:07:33.767Z,11.47
2022-12-25T23:13:14.618Z,11.42
2022-12-25T23:18:54.881Z,11.36
2022-12-25T23:24:52.017Z,11.31
2022-12-25T23:30:27.560Z,11.33
2022-12-25T23:35:49.299Z,11.27
2022-12-25T23:41:11.089Z,11.16
2022-12-25T23:46:33.132Z,11.02
2022-12-25T23:51:55.798Z,11.00
2022-12-25T23:57:17.484Z,10.99
